sensor_id;sensor_type;location;lat;lon;timestamp;P1;durP1;ratioP1;P2;durP2;ratioP2
7080;SDS011;3582;51.506;11.948;2022-11-09T00:00:22;4.27;;;3.70;;
7080;SDS011;3582;51.506;11.948;2022-11-09T00:02:47;3.07;;;2.87;;
7080;SDS011;3582;51.506;11.948;2022-11-09T00:05:13;3.10;;;2.50;;
7080;SDS011;3582;51.506;11.948;2022-11-09T00:07:39;3.83;;;3.23;;
7080;SDS011;3582;51.506;11.948;2022-11-09T00:10:05;3.20;;;2.47;;
7080;SDS011;3582;51.506;11.948;2022-11-09T00:12:31;2.53;;;2.43;;
7080;SDS011;3582;51.506;11.948;2022-11-09T00:14:57;5.97;;;3.57;;
7080;SDS011;3582;51.506;11.948;2022-11-09T00:17:23;3.50;;;3.30;;
7080;SDS011;3582;51.506;11.948;2022-11-09T00:19:49;2.47;;;2.30;;
7080;SDS011;3582;51.506;11.948;2022-11-09T00:22:15;2.90;;;2.70;;
7080;SDS011;3582;51.506;11.948;2022-11-09T00:24:41;4.43;;;2.40;;
7080;SDS011;3582;51.506;11.948;2022-11-09T00:27:07;3.70;;;2.77;;
7080;SDS011;3582;51.506;11.948;2022-11-09T00:29:33;4.27;;;2.70;;
7080;SDS011;3582;51.506;11.948;2022-11-09T00:31:59;3.37;;;3.07;;
7080;SDS011;3582;51.506;11.948;2022-11-09T00:34:25;2.40;;;2.20;;
7080;SDS011;3582;51.506;11.948;2022-11-09T00:36:51;6.70;;;2.90;;
7080;SDS011;3582;51.506;11.948;2022-11-09T00:39:17;3.37;;;3.10;;
7080;SDS011;3582;51.506;11.948;2022-11-09T00:41:43;4.93;;;2.23;;
7080;SDS011;3582;51.506;11.948;2022-11-09T00:44:09;2.10;;;2.00;;
7080;SDS011;3582;51.506;11.948;2022-11-09T00:46:35;3.53;;;3.10;;
7080;SDS011;3582;51.506;11.948;2022-11-09T00:49:01;4.17;;;2.80;;
7080;SDS011;3582;51.506;11.948;2022-11-09T00:51:27;2.63;;;2.43;;
7080;SDS011;3582;51.506;11.948;2022-11-09T00:53:54;2.37;;;2.27;;
7080;SDS011;3582;51.506;11.948;2022-11-09T00:56:21;2.57;;;2.43;;
7080;SDS011;3582;51.506;11.948;2022-11-09T00:58:47;2.90;;;2.50;;
7080;SDS011;3582;51.506;11.948;2022-11-09T01:01:16;2.30;;;2.20;;
7080;SDS011;3582;51.506;11.948;2022-11-09T01:03:43;2.73;;;2.53;;
7080;SDS011;3582;51.506;11.948;2022-11-09T01:06:13;6.33;;;2.97;;
7080;SDS011;3582;51.506;11.948;2022-11-09T01:08:39;2.90;;;2.37;;
7080;SDS011;3582;51.506;11.948;2022-11-09T01:11:05;2.00;;;1.90;;
7080;SDS011;3582;51.506;11.948;2022-11-09T01:13:32;2.40;;;2.20;;
7080;SDS011;3582;51.506;11.948;2022-11-09T01:15:58;4.67;;;3.00;;
7080;SDS011;3582;51.506;11.948;2022-11-09T01:18:24;2.80;;;2.63;;
7080;SDS011;3582;51.506;11.948;2022-11-09T01:20:50;3.30;;;2.13;;
7080;SDS011;3582;51.506;11.948;2022-11-09T01:23:17;3.00;;;2.80;;
7080;SDS011;3582;51.506;11.948;2022-11-09T01:25:44;2.30;;;2.00;;
7080;SDS011;3582;51.506;11.948;2022-11-09T01:28:10;4.50;;;2.47;;
7080;SDS011;3582;51.506;11.948;2022-11-09T01:30:37;5.20;;;2.63;;
7080;SDS011;3582;51.506;11.948;2022-11-09T01:33:04;4.07;;;2.20;;
7080;SDS011;3582;51.506;11.948;2022-11-09T01:35:34;2.80;;;2.60;;
7080;SDS011;3582;51.506;11.948;2022-11-09T01:38:01;3.47;;;2.03;;
7080;SDS011;3582;51.506;11.948;2022-11-09T01:40:27;4.50;;;2.77;;
7080;SDS011;3582;51.506;11.948;2022-11-09T01:42:53;2.40;;;2.30;;
7080;SDS011;3582;51.506;11.948;2022-11-09T01:45:21;2.70;;;2.53;;
7080;SDS011;3582;51.506;11.948;2022-11-09T01:47:48;6.00;;;2.23;;
7080;SDS011;3582;51.506;11.948;2022-11-09T01:50:16;2.20;;;2.10;;
7080;SDS011;3582;51.506;11.948;2022-11-09T01:52:43;2.40;;;2.00;;
7080;SDS011;3582;51.506;11.948;2022-11-09T01:55:12;1.80;;;1.70;;
7080;SDS011;3582;51.506;11.948;2022-11-09T01:57:51;3.03;;;1.97;;
7080;SDS011;3582;51.506;11.948;2022-11-09T02:00:18;2.30;;;2.00;;
7080;SDS011;3582;51.506;11.948;2022-11-09T02:02:52;2.80;;;2.60;;
7080;SDS011;3582;51.506;11.948;2022-11-09T02:05:24;2.43;;;2.33;;
7080;SDS011;3582;51.506;11.948;2022-11-09T02:07:51;2.57;;;2.37;;
7080;SDS011;3582;51.506;11.948;2022-11-09T02:12:52;3.93;;;2.20;;
7080;SDS011;3582;51.506;11.948;2022-11-09T02:15:18;3.87;;;2.93;;
7080;SDS011;3582;51.506;11.948;2022-11-09T02:17:47;2.30;;;2.20;;
7080;SDS011;3582;51.506;11.948;2022-11-09T02:20:14;2.47;;;2.27;;
7080;SDS011;3582;51.506;11.948;2022-11-09T02:22:40;2.17;;;2.07;;
7080;SDS011;3582;51.506;11.948;2022-11-09T02:25:07;2.57;;;2.37;;
7080;SDS011;3582;51.506;11.948;2022-11-09T02:27:33;3.70;;;2.73;;
7080;SDS011;3582;51.506;11.948;2022-11-09T02:30:00;4.00;;;2.43;;
7080;SDS011;3582;51.506;11.948;2022-11-09T02:32:27;3.83;;;2.87;;
7080;SDS011;3582;51.506;11.948;2022-11-09T02:34:54;2.43;;;2.33;;
7080;SDS011;3582;51.506;11.948;2022-11-09T02:37:31;4.37;;;3.07;;
7080;SDS011;3582;51.506;11.948;2022-11-09T02:39:59;4.57;;;3.17;;
7080;SDS011;3582;51.506;11.948;2022-11-09T02:42:26;2.63;;;2.43;;
7080;SDS011;3582;51.506;11.948;2022-11-09T02:44:53;4.73;;;2.73;;
7080;SDS011;3582;51.506;11.948;2022-11-09T02:47:20;2.67;;;2.40;;
7080;SDS011;3582;51.506;11.948;2022-11-09T02:49:46;5.33;;;2.77;;
7080;SDS011;3582;51.506;11.948;2022-11-09T02:52:12;3.37;;;2.53;;
7080;SDS011;3582;51.506;11.948;2022-11-09T02:54:38;2.73;;;2.50;;
7080;SDS011;3582;51.506;11.948;2022-11-09T02:57:04;2.87;;;2.67;;
7080;SDS011;3582;51.506;11.948;2022-11-09T02:59:29;3.20;;;2.87;;
7080;SDS011;3582;51.506;11.948;2022-11-09T03:01:55;6.50;;;3.77;;
7080;SDS011;3582;51.506;11.948;2022-11-09T03:04:21;3.27;;;3.07;;
7080;SDS011;3582;51.506;11.948;2022-11-09T03:06:48;3.63;;;2.87;;
7080;SDS011;3582;51.506;11.948;2022-11-09T03:09:14;6.00;;;3.10;;
7080;SDS011;3582;51.506;11.948;2022-11-09T03:11:40;2.23;;;2.13;;
7080;SDS011;3582;51.506;11.948;2022-11-09T03:14:07;2.20;;;2.10;;
7080;SDS011;3582;51.506;11.948;2022-11-09T03:16:36;2.43;;;2.23;;
7080;SDS011;3582;51.506;11.948;2022-11-09T03:19:02;4.27;;;2.57;;
7080;SDS011;3582;51.506;11.948;2022-11-09T03:21:28;3.00;;;2.53;;
7080;SDS011;3582;51.506;11.948;2022-11-09T03:23:54;6.17;;;3.67;;
7080;SDS011;3582;51.506;11.948;2022-11-09T03:26:20;2.60;;;2.40;;
7080;SDS011;3582;51.506;11.948;2022-11-09T03:28:46;3.07;;;2.87;;
7080;SDS011;3582;51.506;11.948;2022-11-09T03:31:13;3.60;;;2.80;;
7080;SDS011;3582;51.506;11.948;2022-11-09T03:33:39;2.90;;;2.43;;
7080;SDS011;3582;51.506;11.948;2022-11-09T03:36:05;3.80;;;2.63;;
7080;SDS011;3582;51.506;11.948;2022-11-09T03:38:32;2.90;;;2.70;;
7080;SDS011;3582;51.506;11.948;2022-11-09T03:40:58;5.57;;;2.83;;
7080;SDS011;3582;51.506;11.948;2022-11-09T03:43:25;4.83;;;2.90;;
7080;SDS011;3582;51.506;11.948;2022-11-09T03:45:51;3.67;;;2.40;;
7080;SDS011;3582;51.506;11.948;2022-11-09T03:48:17;2.73;;;2.63;;
7080;SDS011;3582;51.506;11.948;2022-11-09T03:50:43;7.67;;;3.63;;
7080;SDS011;3582;51.506;11.948;2022-11-09T03:53:10;3.33;;;3.10;;
7080;SDS011;3582;51.506;11.948;2022-11-09T03:55:36;8.67;;;3.67;;
7080;SDS011;3582;51.506;11.948;2022-11-09T03:58:03;6.07;;;3.63;;
7080;SDS011;3582;51.506;11.948;2022-11-09T04:00:30;9.33;;;2.77;;
7080;SDS011;3582;51.506;11.948;2022-11-09T04:02:56;3.90;;;3.00;;
7080;SDS011;3582;51.506;11.948;2022-11-09T04:05:22;3.43;;;3.13;;
7080;SDS011;3582;51.506;11.948;2022-11-09T04:07:48;7.03;;;4.07;;
7080;SDS011;3582;51.506;11.948;2022-11-09T04:10:15;10.30;;;2.90;;
7080;SDS011;3582;51.506;11.948;2022-11-09T04:12:41;5.87;;;2.70;;
7080;SDS011;3582;51.506;11.948;2022-11-09T04:15:07;3.10;;;2.90;;
7080;SDS011;3582;51.506;11.948;2022-11-09T04:17:33;4.73;;;2.37;;
7080;SDS011;3582;51.506;11.948;2022-11-09T04:19:59;3.13;;;2.93;;
7080;SDS011;3582;51.506;11.948;2022-11-09T04:22:25;3.43;;;2.77;;
7080;SDS011;3582;51.506;11.948;2022-11-09T04:24:51;3.37;;;2.90;;
7080;SDS011;3582;51.506;11.948;2022-11-09T04:27:17;11.23;;;3.53;;
7080;SDS011;3582;51.506;11.948;2022-11-09T04:29:43;2.43;;;2.23;;
7080;SDS011;3582;51.506;11.948;2022-11-09T04:32:09;4.10;;;3.17;;
7080;SDS011;3582;51.506;11.948;2022-11-09T04:34:35;2.87;;;2.57;;
7080;SDS011;3582;51.506;11.948;2022-11-09T04:37:01;5.10;;;3.13;;
7080;SDS011;3582;51.506;11.948;2022-11-09T04:39:27;3.77;;;3.33;;
7080;SDS011;3582;51.506;11.948;2022-11-09T04:41:53;3.30;;;3.07;;
7080;SDS011;3582;51.506;11.948;2022-11-09T04:44:19;6.00;;;2.63;;
7080;SDS011;3582;51.506;11.948;2022-11-09T04:46:45;5.37;;;2.67;;
7080;SDS011;3582;51.506;11.948;2022-11-09T04:49:11;7.23;;;3.43;;
7080;SDS011;3582;51.506;11.948;2022-11-09T04:51:37;4.63;;;3.37;;
7080;SDS011;3582;51.506;11.948;2022-11-09T04:54:03;4.23;;;2.50;;
7080;SDS011;3582;51.506;11.948;2022-11-09T04:56:29;5.30;;;2.53;;
7080;SDS011;3582;51.506;11.948;2022-11-09T04:58:55;3.03;;;2.73;;
7080;SDS011;3582;51.506;11.948;2022-11-09T05:01:21;3.27;;;2.97;;
7080;SDS011;3582;51.506;11.948;2022-11-09T05:03:47;3.77;;;3.17;;
7080;SDS011;3582;51.506;11.948;2022-11-09T05:06:13;2.97;;;2.77;;
7080;SDS011;3582;51.506;11.948;2022-11-09T05:08:59;3.93;;;3.37;;
7080;SDS011;3582;51.506;11.948;2022-11-09T05:11:25;7.17;;;3.07;;
7080;SDS011;3582;51.506;11.948;2022-11-09T05:13:51;4.20;;;2.90;;
7080;SDS011;3582;51.506;11.948;2022-11-09T05:16:17;3.83;;;3.37;;
7080;SDS011;3582;51.506;11.948;2022-11-09T05:18:43;5.30;;;3.47;;
7080;SDS011;3582;51.506;11.948;2022-11-09T05:21:10;5.13;;;3.63;;
7080;SDS011;3582;51.506;11.948;2022-11-09T05:23:36;6.20;;;3.67;;
7080;SDS011;3582;51.506;11.948;2022-11-09T05:26:21;3.70;;;3.43;;
7080;SDS011;3582;51.506;11.948;2022-11-09T05:28:47;3.20;;;2.90;;
7080;SDS011;3582;51.506;11.948;2022-11-09T05:31:13;4.43;;;3.40;;
7080;SDS011;3582;51.506;11.948;2022-11-09T05:33:39;3.90;;;3.57;;
7080;SDS011;3582;51.506;11.948;2022-11-09T05:36:05;4.90;;;3.80;;
7080;SDS011;3582;51.506;11.948;2022-11-09T05:38:31;3.97;;;3.43;;
7080;SDS011;3582;51.506;11.948;2022-11-09T05:40:57;3.57;;;3.27;;
7080;SDS011;3582;51.506;11.948;2022-11-09T05:43:23;3.93;;;3.50;;
7080;SDS011;3582;51.506;11.948;2022-11-09T05:45:49;5.07;;;4.70;;
7080;SDS011;3582;51.506;11.948;2022-11-09T05:48:15;4.50;;;3.77;;
7080;SDS011;3582;51.506;11.948;2022-11-09T05:50:41;4.80;;;4.40;;
7080;SDS011;3582;51.506;11.948;2022-11-09T05:53:08;5.00;;;4.50;;
7080;SDS011;3582;51.506;11.948;2022-11-09T05:55:34;6.27;;;5.67;;
7080;SDS011;3582;51.506;11.948;2022-11-09T05:58:00;7.23;;;5.80;;
7080;SDS011;3582;51.506;11.948;2022-11-09T06:00:27;5.87;;;5.37;;
7080;SDS011;3582;51.506;11.948;2022-11-09T06:02:53;7.40;;;5.67;;
7080;SDS011;3582;51.506;11.948;2022-11-09T06:05:19;4.60;;;4.20;;
7080;SDS011;3582;51.506;11.948;2022-11-09T06:07:45;7.13;;;4.90;;
7080;SDS011;3582;51.506;11.948;2022-11-09T06:10:11;4.67;;;4.27;;
7080;SDS011;3582;51.506;11.948;2022-11-09T06:12:37;5.80;;;4.90;;
7080;SDS011;3582;51.506;11.948;2022-11-09T06:15:03;4.63;;;4.13;;
7080;SDS011;3582;51.506;11.948;2022-11-09T06:17:30;4.37;;;4.07;;
7080;SDS011;3582;51.506;11.948;2022-11-09T06:19:55;7.70;;;3.60;;
7080;SDS011;3582;51.506;11.948;2022-11-09T06:22:22;4.30;;;4.00;;
7080;SDS011;3582;51.506;11.948;2022-11-09T06:24:48;4.10;;;3.70;;
7080;SDS011;3582;51.506;11.948;2022-11-09T06:27:14;5.97;;;4.40;;
7080;SDS011;3582;51.506;11.948;2022-11-09T06:29:40;4.50;;;3.93;;
7080;SDS011;3582;51.506;11.948;2022-11-09T06:32:05;4.57;;;3.83;;
7080;SDS011;3582;51.506;11.948;2022-11-09T06:34:32;5.80;;;4.23;;
7080;SDS011;3582;51.506;11.948;2022-11-09T06:36:57;5.67;;;4.73;;
7080;SDS011;3582;51.506;11.948;2022-11-09T06:39:23;4.67;;;3.70;;
7080;SDS011;3582;51.506;11.948;2022-11-09T06:41:49;4.73;;;4.37;;
7080;SDS011;3582;51.506;11.948;2022-11-09T06:44:15;5.73;;;4.53;;
7080;SDS011;3582;51.506;11.948;2022-11-09T06:46:41;4.97;;;4.47;;
7080;SDS011;3582;51.506;11.948;2022-11-09T06:49:07;7.10;;;4.40;;
7080;SDS011;3582;51.506;11.948;2022-11-09T06:51:35;3.67;;;3.47;;
7080;SDS011;3582;51.506;11.948;2022-11-09T06:54:01;5.03;;;4.20;;
7080;SDS011;3582;51.506;11.948;2022-11-09T06:56:27;4.37;;;3.97;;
7080;SDS011;3582;51.506;11.948;2022-11-09T06:58:53;4.43;;;4.03;;
7080;SDS011;3582;51.506;11.948;2022-11-09T07:01:19;4.40;;;4.00;;
7080;SDS011;3582;51.506;11.948;2022-11-09T07:03:47;8.43;;;7.40;;
7080;SDS011;3582;51.506;11.948;2022-11-09T07:06:12;6.13;;;4.30;;
7080;SDS011;3582;51.506;11.948;2022-11-09T07:08:39;5.83;;;5.30;;
7080;SDS011;3582;51.506;11.948;2022-11-09T07:11:10;8.33;;;5.37;;
7080;SDS011;3582;51.506;11.948;2022-11-09T07:13:36;6.30;;;5.80;;
7080;SDS011;3582;51.506;11.948;2022-11-09T07:16:02;4.10;;;3.77;;
7080;SDS011;3582;51.506;11.948;2022-11-09T07:18:28;4.63;;;4.33;;
7080;SDS011;3582;51.506;11.948;2022-11-09T07:20:54;7.53;;;6.10;;
7080;SDS011;3582;51.506;11.948;2022-11-09T07:23:20;4.63;;;4.20;;
7080;SDS011;3582;51.506;11.948;2022-11-09T07:25:46;6.00;;;4.23;;
7080;SDS011;3582;51.506;11.948;2022-11-09T07:28:12;4.30;;;4.00;;
7080;SDS011;3582;51.506;11.948;2022-11-09T07:30:38;3.77;;;3.27;;
7080;SDS011;3582;51.506;11.948;2022-11-09T07:33:11;4.10;;;3.80;;
7080;SDS011;3582;51.506;11.948;2022-11-09T07:35:37;5.53;;;5.03;;
7080;SDS011;3582;51.506;11.948;2022-11-09T07:38:03;4.13;;;3.83;;
7080;SDS011;3582;51.506;11.948;2022-11-09T07:40:29;5.43;;;4.73;;
7080;SDS011;3582;51.506;11.948;2022-11-09T07:42:59;4.37;;;3.97;;
7080;SDS011;3582;51.506;11.948;2022-11-09T07:45:25;5.13;;;4.37;;
7080;SDS011;3582;51.506;11.948;2022-11-09T07:47:55;5.37;;;4.30;;
7080;SDS011;3582;51.506;11.948;2022-11-09T07:50:21;8.50;;;5.43;;
7080;SDS011;3582;51.506;11.948;2022-11-09T07:52:47;4.47;;;3.90;;
7080;SDS011;3582;51.506;11.948;2022-11-09T07:55:13;4.73;;;4.00;;
7080;SDS011;3582;51.506;11.948;2022-11-09T07:57:39;6.97;;;4.30;;
7080;SDS011;3582;51.506;11.948;2022-11-09T08:00:05;6.33;;;4.80;;
7080;SDS011;3582;51.506;11.948;2022-11-09T08:02:31;4.93;;;4.40;;
7080;SDS011;3582;51.506;11.948;2022-11-09T08:04:57;7.40;;;6.70;;
7080;SDS011;3582;51.506;11.948;2022-11-09T08:07:23;5.77;;;5.30;;
7080;SDS011;3582;51.506;11.948;2022-11-09T08:09:49;3.70;;;3.40;;
7080;SDS011;3582;51.506;11.948;2022-11-09T08:12:15;4.63;;;4.23;;
7080;SDS011;3582;51.506;11.948;2022-11-09T08:14:41;4.00;;;3.70;;
7080;SDS011;3582;51.506;11.948;2022-11-09T08:17:07;6.03;;;5.57;;
7080;SDS011;3582;51.506;11.948;2022-11-09T08:19:33;4.80;;;4.40;;
7080;SDS011;3582;51.506;11.948;2022-11-09T08:21:59;4.03;;;3.80;;
7080;SDS011;3582;51.506;11.948;2022-11-09T08:24:25;3.67;;;3.37;;
7080;SDS011;3582;51.506;11.948;2022-11-09T08:26:51;3.60;;;3.30;;
7080;SDS011;3582;51.506;11.948;2022-11-09T08:29:17;4.53;;;4.20;;
7080;SDS011;3582;51.506;11.948;2022-11-09T08:31:43;5.10;;;4.30;;
7080;SDS011;3582;51.506;11.948;2022-11-09T08:34:09;4.80;;;4.40;;
7080;SDS011;3582;51.506;11.948;2022-11-09T08:36:35;6.47;;;4.13;;
7080;SDS011;3582;51.506;11.948;2022-11-09T08:39:01;6.97;;;4.60;;
7080;SDS011;3582;51.506;11.948;2022-11-09T08:41:27;6.60;;;4.60;;
7080;SDS011;3582;51.506;11.948;2022-11-09T08:43:54;4.57;;;4.17;;
7080;SDS011;3582;51.506;11.948;2022-11-09T08:46:19;4.10;;;3.70;;
7080;SDS011;3582;51.506;11.948;2022-11-09T08:48:45;3.30;;;3.10;;
7080;SDS011;3582;51.506;11.948;2022-11-09T08:51:11;4.10;;;3.50;;
7080;SDS011;3582;51.506;11.948;2022-11-09T08:53:37;6.83;;;3.80;;
7080;SDS011;3582;51.506;11.948;2022-11-09T08:56:06;4.53;;;3.60;;
7080;SDS011;3582;51.506;11.948;2022-11-09T08:58:33;3.73;;;3.43;;
7080;SDS011;3582;51.506;11.948;2022-11-09T09:00:59;6.10;;;3.10;;
7080;SDS011;3582;51.506;11.948;2022-11-09T09:03:25;5.07;;;3.80;;
7080;SDS011;3582;51.506;11.948;2022-11-09T09:05:51;5.60;;;3.90;;
7080;SDS011;3582;51.506;11.948;2022-11-09T09:08:17;5.20;;;4.67;;
7080;SDS011;3582;51.506;11.948;2022-11-09T09:10:46;11.30;;;3.73;;
7080;SDS011;3582;51.506;11.948;2022-11-09T09:13:12;8.13;;;3.43;;
7080;SDS011;3582;51.506;11.948;2022-11-09T09:15:39;5.77;;;3.27;;
7080;SDS011;3582;51.506;11.948;2022-11-09T09:18:05;3.93;;;3.53;;
7080;SDS011;3582;51.506;11.948;2022-11-09T09:20:31;3.73;;;3.40;;
7080;SDS011;3582;51.506;11.948;2022-11-09T09:22:57;6.10;;;3.47;;
7080;SDS011;3582;51.506;11.948;2022-11-09T09:25:24;3.97;;;3.60;;
7080;SDS011;3582;51.506;11.948;2022-11-09T09:27:50;10.20;;;3.10;;
7080;SDS011;3582;51.506;11.948;2022-11-09T09:30:16;3.77;;;3.37;;
7080;SDS011;3582;51.506;11.948;2022-11-09T09:32:42;3.23;;;2.90;;
7080;SDS011;3582;51.506;11.948;2022-11-09T09:35:08;4.80;;;3.80;;
7080;SDS011;3582;51.506;11.948;2022-11-09T09:37:34;3.60;;;3.30;;
7080;SDS011;3582;51.506;11.948;2022-11-09T09:40:00;6.80;;;4.47;;
7080;SDS011;3582;51.506;11.948;2022-11-09T09:42:39;3.70;;;3.40;;
7080;SDS011;3582;51.506;11.948;2022-11-09T09:45:14;3.93;;;3.23;;
7080;SDS011;3582;51.506;11.948;2022-11-09T09:50:14;2.57;;;2.33;;
7080;SDS011;3582;51.506;11.948;2022-11-09T09:55:25;4.37;;;2.70;;
7080;SDS011;3582;51.506;11.948;2022-11-09T09:57:56;2.57;;;2.37;;
7080;SDS011;3582;51.506;11.948;2022-11-09T10:00:24;6.50;;;3.33;;
7080;SDS011;3582;51.506;11.948;2022-11-09T10:02:51;2.90;;;2.70;;
7080;SDS011;3582;51.506;11.948;2022-11-09T10:05:18;9.20;;;3.00;;
7080;SDS011;3582;51.506;11.948;2022-11-09T10:07:50;8.10;;;2.80;;
7080;SDS011;3582;51.506;11.948;2022-11-09T10:12:51;5.00;;;4.60;;
7080;SDS011;3582;51.506;11.948;2022-11-09T10:26:12;5.30;;;3.00;;
7080;SDS011;3582;51.506;11.948;2022-11-09T10:28:40;3.23;;;2.10;;
7080;SDS011;3582;51.506;11.948;2022-11-09T10:31:12;2.73;;;2.23;;
7080;SDS011;3582;51.506;11.948;2022-11-09T10:33:38;2.77;;;2.57;;
7080;SDS011;3582;51.506;11.948;2022-11-09T10:36:19;2.30;;;2.20;;
7080;SDS011;3582;51.506;11.948;2022-11-09T10:38:48;2.57;;;2.37;;
7080;SDS011;3582;51.506;11.948;2022-11-09T10:44:19;6.50;;;2.20;;
7080;SDS011;3582;51.506;11.948;2022-11-09T10:47:01;3.43;;;3.13;;
7080;SDS011;3582;51.506;11.948;2022-11-09T10:49:27;3.30;;;2.67;;
7080;SDS011;3582;51.506;11.948;2022-11-09T10:51:53;6.93;;;2.77;;
7080;SDS011;3582;51.506;11.948;2022-11-09T10:54:23;7.80;;;2.90;;
7080;SDS011;3582;51.506;11.948;2022-11-09T10:56:57;2.63;;;2.43;;
7080;SDS011;3582;51.506;11.948;2022-11-09T11:04:51;7.23;;;2.50;;
7080;SDS011;3582;51.506;11.948;2022-11-09T11:07:37;5.90;;;2.10;;
7080;SDS011;3582;51.506;11.948;2022-11-09T11:10:36;4.63;;;3.00;;
7080;SDS011;3582;51.506;11.948;2022-11-09T11:18:03;3.17;;;2.97;;
7080;SDS011;3582;51.506;11.948;2022-11-09T11:20:31;4.10;;;3.70;;
7080;SDS011;3582;51.506;11.948;2022-11-09T11:23:17;7.83;;;2.37;;
7080;SDS011;3582;51.506;11.948;2022-11-09T11:28:41;5.37;;;3.27;;
7080;SDS011;3582;51.506;11.948;2022-11-09T11:31:06;2.53;;;2.17;;
7080;SDS011;3582;51.506;11.948;2022-11-09T11:33:36;7.37;;;3.40;;
7080;SDS011;3582;51.506;11.948;2022-11-09T11:36:45;3.43;;;2.50;;
7080;SDS011;3582;51.506;11.948;2022-11-09T11:41:45;6.57;;;5.27;;
7080;SDS011;3582;51.506;11.948;2022-11-09T12:12:58;1.80;;;1.63;;
7080;SDS011;3582;51.506;11.948;2022-11-09T12:20:52;1.63;;;1.50;;
7080;SDS011;3582;51.506;11.948;2022-11-09T12:25:56;1.53;;;1.20;;
7080;SDS011;3582;51.506;11.948;2022-11-09T12:28:27;1.40;;;1.30;;
7080;SDS011;3582;51.506;11.948;2022-11-09T12:33:25;5.50;;;1.90;;
7080;SDS011;3582;51.506;11.948;2022-11-09T12:36:00;6.67;;;1.97;;
7080;SDS011;3582;51.506;11.948;2022-11-09T12:38:32;1.40;;;1.30;;
7080;SDS011;3582;51.506;11.948;2022-11-09T12:41:05;1.33;;;1.20;;
7080;SDS011;3582;51.506;11.948;2022-11-09T12:44:08;2.30;;;1.53;;
7080;SDS011;3582;51.506;11.948;2022-11-09T12:46:26;2.37;;;1.60;;
7080;SDS011;3582;51.506;11.948;2022-11-09T12:48:55;4.43;;;2.87;;
7080;SDS011;3582;51.506;11.948;2022-11-09T12:51:23;1.80;;;1.70;;
7080;SDS011;3582;51.506;11.948;2022-11-09T12:53:49;1.40;;;1.27;;
7080;SDS011;3582;51.506;11.948;2022-11-09T12:56:22;2.00;;;1.27;;
7080;SDS011;3582;51.506;11.948;2022-11-09T12:58:49;1.57;;;1.00;;
7080;SDS011;3582;51.506;11.948;2022-11-09T13:03:54;1.87;;;1.77;;
7080;SDS011;3582;51.506;11.948;2022-11-09T13:06:27;3.80;;;1.53;;
7080;SDS011;3582;51.506;11.948;2022-11-09T13:13:48;1.53;;;1.53;;
7080;SDS011;3582;51.506;11.948;2022-11-09T13:16:31;2.03;;;1.57;;
7080;SDS011;3582;51.506;11.948;2022-11-09T13:18:58;1.80;;;1.37;;
7080;SDS011;3582;51.506;11.948;2022-11-09T13:23:53;1.70;;;1.60;;
7080;SDS011;3582;51.506;11.948;2022-11-09T13:26:20;1.50;;;1.50;;
7080;SDS011;3582;51.506;11.948;2022-11-09T13:39:45;6.43;;;1.50;;
7080;SDS011;3582;51.506;11.948;2022-11-09T13:42:22;1.23;;;1.23;;
7080;SDS011;3582;51.506;11.948;2022-11-09T13:44:49;2.43;;;1.63;;
7080;SDS011;3582;51.506;11.948;2022-11-09T13:47:25;3.60;;;1.60;;
7080;SDS011;3582;51.506;11.948;2022-11-09T13:49:52;1.87;;;1.37;;
7080;SDS011;3582;51.506;11.948;2022-11-09T13:55:10;4.40;;;2.27;;
7080;SDS011;3582;51.506;11.948;2022-11-09T13:57:37;2.10;;;1.90;;
7080;SDS011;3582;51.506;11.948;2022-11-09T14:00:04;7.50;;;2.60;;
7080;SDS011;3582;51.506;11.948;2022-11-09T14:02:31;2.03;;;1.80;;
7080;SDS011;3582;51.506;11.948;2022-11-09T14:04:57;1.73;;;1.63;;
7080;SDS011;3582;51.506;11.948;2022-11-09T14:07:26;2.23;;;1.47;;
7080;SDS011;3582;51.506;11.948;2022-11-09T14:17:38;1.63;;;1.50;;
7080;SDS011;3582;51.506;11.948;2022-11-09T14:23:18;1.50;;;1.40;;
7080;SDS011;3582;51.506;11.948;2022-11-09T14:25:44;3.40;;;1.80;;
7080;SDS011;3582;51.506;11.948;2022-11-09T14:28:21;1.70;;;1.60;;
7080;SDS011;3582;51.506;11.948;2022-11-09T14:30:47;1.93;;;1.73;;
7080;SDS011;3582;51.506;11.948;2022-11-09T14:33:23;1.30;;;1.20;;
7080;SDS011;3582;51.506;11.948;2022-11-09T14:35:50;1.23;;;1.23;;
7080;SDS011;3582;51.506;11.948;2022-11-09T14:38:23;1.40;;;1.30;;
7080;SDS011;3582;51.506;11.948;2022-11-09T14:40:49;3.40;;;1.43;;
7080;SDS011;3582;51.506;11.948;2022-11-09T14:43:22;1.30;;;1.30;;
7080;SDS011;3582;51.506;11.948;2022-11-09T14:45:50;1.53;;;1.43;;
7080;SDS011;3582;51.506;11.948;2022-11-09T14:48:17;6.03;;;1.47;;
7080;SDS011;3582;51.506;11.948;2022-11-09T14:50:43;1.20;;;1.20;;
7080;SDS011;3582;51.506;11.948;2022-11-09T14:53:16;3.57;;;1.50;;
7080;SDS011;3582;51.506;11.948;2022-11-09T14:55:46;3.67;;;1.57;;
7080;SDS011;3582;51.506;11.948;2022-11-09T14:58:13;2.03;;;1.80;;
7080;SDS011;3582;51.506;11.948;2022-11-09T15:00:39;2.13;;;1.97;;
7080;SDS011;3582;51.506;11.948;2022-11-09T15:06:01;6.00;;;3.43;;
7080;SDS011;3582;51.506;11.948;2022-11-09T15:08:27;7.83;;;2.60;;
7080;SDS011;3582;51.506;11.948;2022-11-09T15:10:54;4.13;;;3.17;;
7080;SDS011;3582;51.506;11.948;2022-11-09T15:13:34;3.77;;;2.30;;
7080;SDS011;3582;51.506;11.948;2022-11-09T15:16:00;1.40;;;1.40;;
7080;SDS011;3582;51.506;11.948;2022-11-09T15:18:28;2.23;;;2.10;;
7080;SDS011;3582;51.506;11.948;2022-11-09T15:23:40;2.83;;;1.23;;
7080;SDS011;3582;51.506;11.948;2022-11-09T15:26:23;1.53;;;1.30;;
7080;SDS011;3582;51.506;11.948;2022-11-09T15:28:49;1.87;;;1.63;;
7080;SDS011;3582;51.506;11.948;2022-11-09T15:31:16;1.93;;;1.73;;
7080;SDS011;3582;51.506;11.948;2022-11-09T15:33:50;1.90;;;1.60;;
7080;SDS011;3582;51.506;11.948;2022-11-09T15:36:24;2.13;;;1.57;;
7080;SDS011;3582;51.506;11.948;2022-11-09T15:38:56;2.63;;;1.87;;
7080;SDS011;3582;51.506;11.948;2022-11-09T15:41:23;5.23;;;2.70;;
7080;SDS011;3582;51.506;11.948;2022-11-09T15:43:49;2.53;;;2.20;;
7080;SDS011;3582;51.506;11.948;2022-11-09T15:46:17;2.13;;;2.03;;
7080;SDS011;3582;51.506;11.948;2022-11-09T15:48:43;4.93;;;3.60;;
7080;SDS011;3582;51.506;11.948;2022-11-09T15:51:09;5.10;;;2.00;;
7080;SDS011;3582;51.506;11.948;2022-11-09T15:53:35;6.50;;;3.90;;
7080;SDS011;3582;51.506;11.948;2022-11-09T15:56:01;4.10;;;1.70;;
7080;SDS011;3582;51.506;11.948;2022-11-09T15:58:27;2.63;;;2.43;;
7080;SDS011;3582;51.506;11.948;2022-11-09T16:00:53;1.67;;;1.57;;
7080;SDS011;3582;51.506;11.948;2022-11-09T16:03:19;3.57;;;2.73;;
7080;SDS011;3582;51.506;11.948;2022-11-09T16:05:45;1.90;;;1.80;;
7080;SDS011;3582;51.506;11.948;2022-11-09T16:08:11;5.50;;;2.00;;
7080;SDS011;3582;51.506;11.948;2022-11-09T16:10:38;3.70;;;2.20;;
7080;SDS011;3582;51.506;11.948;2022-11-09T16:13:05;5.87;;;2.20;;
7080;SDS011;3582;51.506;11.948;2022-11-09T16:15:32;1.73;;;1.63;;
7080;SDS011;3582;51.506;11.948;2022-11-09T16:17:58;3.83;;;1.90;;
7080;SDS011;3582;51.506;11.948;2022-11-09T16:20:24;3.77;;;2.40;;
7080;SDS011;3582;51.506;11.948;2022-11-09T16:22:50;3.73;;;2.30;;
7080;SDS011;3582;51.506;11.948;2022-11-09T16:25:16;3.70;;;2.47;;
7080;SDS011;3582;51.506;11.948;2022-11-09T16:27:42;3.10;;;2.77;;
7080;SDS011;3582;51.506;11.948;2022-11-09T16:30:08;4.10;;;2.53;;
7080;SDS011;3582;51.506;11.948;2022-11-09T16:32:35;2.00;;;1.90;;
7080;SDS011;3582;51.506;11.948;2022-11-09T16:35:01;4.17;;;2.60;;
7080;SDS011;3582;51.506;11.948;2022-11-09T16:37:31;7.50;;;2.53;;
7080;SDS011;3582;51.506;11.948;2022-11-09T16:39:59;3.37;;;2.20;;
7080;SDS011;3582;51.506;11.948;2022-11-09T16:42:26;2.10;;;2.00;;
7080;SDS011;3582;51.506;11.948;2022-11-09T16:44:52;4.50;;;1.77;;
7080;SDS011;3582;51.506;11.948;2022-11-09T16:47:21;3.40;;;3.10;;
7080;SDS011;3582;51.506;11.948;2022-11-09T16:49:47;6.90;;;3.00;;
7080;SDS011;3582;51.506;11.948;2022-11-09T16:52:13;4.30;;;2.60;;
7080;SDS011;3582;51.506;11.948;2022-11-09T16:54:40;9.90;;;2.70;;
7080;SDS011;3582;51.506;11.948;2022-11-09T16:57:06;1.80;;;1.73;;
7080;SDS011;3582;51.506;11.948;2022-11-09T16:59:32;3.20;;;2.10;;
7080;SDS011;3582;51.506;11.948;2022-11-09T17:01:58;2.23;;;2.10;;